Time;durP1;ratioP1;P1;durP2;ratioP2;P2;SDS_P1;SDS_P2;PMS_P1;PMS_P2;Temp;Humidity;BMP_temperature;BMP_pressure;BME280_temperature;BME280_humidity;BME280_pressure;Samples;Min_cycle;Max_cycle;Signal;HPM_P1;HPM_P2
2021/11/02 00:00:14;;;;;;;74.65;45.70;;;10.00;80.50;;;;;;5056387;28;20341;-39
2021/11/02 00:02:44;;;;;;;83.65;47.20;;;10.00;80.60;;;;;;5055853;28;20037;-34
2021/11/02 00:05:09;;;;;;;69.18;42.92;;;10.00;80.60;;;;;;5056413;28;20409;-40
2021/11/02 00:07:35;;;;;;;84.43;46.45;;;10.00;80.60;;;;;;5055688;28;20025;-34
2021/11/02 00:10:03;;;;;;;83.90;48.17;;;10.00;80.60;;;;;;5055907;28;20032;-39
2021/11/02 00:12:29;;;;;;;79.90;45.03;;;10.00;80.60;;;;;;5055582;28;20040;-37
2021/11/02 00:14:54;;;;;;;84.13;46.75;;;10.00;80.60;;;;;;5055511;28;20028;-39
2021/11/02 00:17:24;;;;;;;75.82;45.38;;;10.10;80.70;;;;;;5055626;28;20029;-35
2021/11/02 00:19:53;;;;;;;73.85;44.65;;;10.10;80.60;;;;;;5055677;28;20095;-34
2021/11/02 00:22:21;;;;;;;78.72;45.28;;;10.10;80.50;;;;;;5055734;28;20037;-35
2021/11/02 00:25:00;;;;;;;70.28;43.03;;;10.10;80.70;;;;;;5055938;28;20033;-40
2021/11/02 00:27:26;;;;;;;65.70;40.45;;;10.10;80.70;;;;;;5055444;28;20060;-39
2021/11/02 00:29:55;;;;;;;73.45;42.08;;;10.10;80.70;;;;;;5055925;28;20025;-33
2021/11/02 00:32:23;;;;;;;70.40;42.00;;;10.10;80.90;;;;;;5055743;28;20029;-34
2021/11/02 00:34:49;;;;;;;72.22;42.00;;;10.10;80.90;;;;;;5055874;28;20467;-34
2021/11/02 00:37:15;;;;;;;72.50;44.20;;;10.10;80.90;;;;;;5055590;28;20025;-34
2021/11/02 00:39:41;;;;;;;73.40;43.97;;;10.10;80.90;;;;;;5055974;28;20078;-40
2021/11/02 00:42:07;;;;;;;68.68;42.40;;;10.10;80.90;;;;;;5055657;28;20022;-40
2021/11/02 00:44:35;;;;;;;68.50;40.22;;;10.10;80.90;;;;;;5055670;28;20082;-39
2021/11/02 00:47:00;;;;;;;81.22;45.50;;;10.10;80.90;;;;;;5055617;28;20029;-34
2021/11/02 00:49:26;;;;;;;67.55;40.05;;;10.10;81.00;;;;;;5057658;28;20036;-34
2021/11/02 00:51:52;;;;;;;71.07;42.65;;;10.10;81.00;;;;;;5059320;28;20060;-40
2021/11/02 00:54:19;;;;;;;62.05;38.40;;;10.10;81.00;;;;;;5059477;28;20083;-34
2021/11/02 00:56:45;;;;;;;66.15;39.80;;;10.10;81.10;;;;;;5059432;28;20029;-35
2021/11/02 00:59:11;;;;;;;58.55;36.03;;;10.10;81.10;;;;;;5059705;28;20118;-39
2021/11/02 01:01:38;;;;;;;77.65;42.22;;;10.10;81.10;;;;;;5059113;28;20067;-40
2021/11/02 01:04:05;;;;;;;72.35;42.50;;;10.10;81.20;;;;;;5059465;28;20041;-41
2021/11/02 01:06:36;;;;;;;71.80;41.20;;;10.10;81.20;;;;;;5059222;28;20021;-41
2021/11/02 01:09:04;;;;;;;66.32;39.05;;;10.00;81.20;;;;;;5059628;28;20025;-40
2021/11/02 01:11:30;;;;;;;64.72;37.30;;;10.10;81.20;;;;;;5059197;28;20086;-35
2021/11/02 01:13:56;;;;;;;64.97;40.50;;;10.00;81.20;;;;;;5059294;28;20401;-39
2021/11/02 01:16:25;;;;;;;69.20;40.97;;;10.00;81.20;;;;;;5059291;28;20453;-38
2021/11/02 01:18:53;;;;;;;60.60;37.88;;;10.00;81.30;;;;;;5058883;28;20033;-34
2021/11/02 01:21:20;;;;;;;70.28;40.38;;;10.00;81.30;;;;;;5058885;28;20053;-34
2021/11/02 01:23:46;;;;;;;68.28;42.80;;;10.00;81.20;;;;;;5058726;28;20029;-39
2021/11/02 01:26:12;;;;;;;66.13;38.70;;;10.00;81.10;;;;;;5058971;28;20368;-34
2021/11/02 01:28:38;;;;;;;71.07;41.60;;;10.00;81.10;;;;;;5058585;28;20058;-34
2021/11/02 01:31:04;;;;;;;60.65;36.72;;;10.00;81.10;;;;;;5058792;28;20421;-39
2021/11/02 01:33:29;;;;;;;72.93;41.38;;;10.00;81.10;;;;;;5058327;28;20025;-35
2021/11/02 01:35:55;;;;;;;65.13;40.03;;;10.00;81.20;;;;;;5058972;28;20029;-34
2021/11/02 01:38:23;;;;;;;66.35;38.28;;;10.00;81.30;;;;;;5058394;28;20074;-34
2021/11/02 01:40:54;;;;;;;63.85;39.25;;;10.00;81.30;;;;;;5058807;28;20052;-40
2021/11/02 01:43:20;;;;;;;;;;;10.00;81.40;;;;;;5058934;28;20025;-39
2021/11/02 01:45:46;;;;;;;76.50;43.95;;;9.90;81.00;;;;;;5058585;28;19986;-39
2021/11/02 01:48:21;;;;;;;72.88;41.15;;;9.90;81.20;;;;;;5058511;28;20029;-34
2021/11/02 01:50:48;;;;;;;66.30;38.22;;;9.90;81.40;;;;;;5058545;28;20029;-39
2021/11/02 01:53:14;;;;;;;65.70;38.45;;;9.90;81.40;;;;;;5058524;28;20451;-34
2021/11/02 01:55:41;;;;;;;72.88;40.08;;;9.90;81.40;;;;;;5058062;28;20386;-35
2021/11/02 01:58:09;;;;;;;65.40;37.05;;;9.90;81.40;;;;;;5058390;28;20064;-40
2021/11/02 02:00:36;;;;;;;60.70;36.08;;;9.80;81.40;;;;;;5058684;28;20029;-35
2021/11/02 02:03:12;;;;;;;70.22;38.28;;;9.90;81.30;;;;;;5058172;28;20322;-39
2021/11/02 02:05:43;;;;;;;66.53;38.28;;;9.90;81.40;;;;;;5058600;28;20103;-35
2021/11/02 02:08:46;;;;;;;60.33;34.67;;;9.80;81.40;;;;;;5058092;28;20414;-39
2021/11/02 02:11:41;;;;;;;59.15;35.95;;;9.90;81.30;;;;;;5058025;28;20041;-35
2021/11/02 02:14:39;;;;;;;67.25;38.25;;;9.80;81.30;;;;;;5057967;28;20039;-40
2021/11/02 02:17:20;;;;;;;65.72;37.25;;;9.80;81.30;;;;;;5057534;28;20052;-40
2021/11/02 02:19:48;;;;;;;63.63;36.92;;;9.80;81.30;;;;;;5058240;28;20037;-40
2021/11/02 02:22:20;;;;;;;64.57;36.45;;;9.80;81.40;;;;;;5056502;28;20037;-40
2021/11/02 02:25:30;;;;;;;60.25;34.92;;;9.80;81.50;;;;;;5058087;28;20029;-39
2021/11/02 02:28:11;;;;;;;67.53;35.40;;;9.70;81.30;;;;;;5057546;28;20037;-34
2021/11/02 02:30:44;;;;;;;63.60;35.10;;;9.70;81.30;;;;;;5058015;28;20032;-34
2021/11/02 02:33:11;;;;;;;55.65;31.55;;;9.70;81.40;;;;;;5057463;28;20097;-34
2021/11/02 02:35:37;;;;;;;57.63;32.88;;;9.70;81.50;;;;;;5057962;28;20021;-38
2021/11/02 02:38:04;;;;;;;59.40;33.70;;;9.70;81.60;;;;;;5057236;28;20037;-40
2021/11/02 02:40:31;;;;;;;57.38;32.65;;;9.70;81.60;;;;;;5057976;28;20342;-34
2021/11/02 02:42:58;;;;;;;57.92;34.08;;;9.60;81.50;;;;;;5057270;28;20306;-34
2021/11/02 02:45:25;;;;;;;59.20;31.15;;;9.60;81.60;;;;;;5057763;28;20036;-41
2021/11/02 02:47:51;;;;;;;59.60;33.53;;;9.70;81.70;;;;;;5057236;28;20297;-34
2021/11/02 02:50:19;;;;;;;61.25;32.60;;;9.60;81.60;;;;;;5057435;28;20024;-41
2021/11/02 02:52:46;;;;;;;58.05;33.25;;;9.60;81.70;;;;;;5056952;28;20044;-34
2021/11/02 02:55:16;;;;;;;55.83;33.05;;;9.60;81.60;;;;;;5057080;28;20049;-35
2021/11/02 02:57:43;;;;;;;53.08;31.88;;;9.60;81.80;;;;;;5057172;28;20055;-39
2021/11/02 03:00:11;;;;;;;60.63;34.85;;;9.60;81.90;;;;;;5057455;28;20029;-35
2021/11/02 03:02:39;;;;;;;50.92;30.08;;;9.60;81.90;;;;;;5057449;28;20405;-35
2021/11/02 03:05:07;;;;;;;57.95;33.60;;;9.60;82.50;;;;;;5057403;28;20031;-34
2021/11/02 03:07:34;;;;;;;58.40;33.22;;;9.60;82.00;;;;;;5056545;28;20043;-39
2021/11/02 03:10:00;;;;;;;49.72;29.05;;;9.50;82.10;;;;;;5057134;28;20471;-35
2021/11/02 03:12:30;;;;;;;57.65;32.67;;;9.50;82.10;;;;;;5056818;28;20029;-40
2021/11/02 03:18:02;;;;;;;54.88;32.08;;;9.50;82.00;;;;;;5056635;28;20466;-40
2021/11/02 03:50:57;;;;;;;53.45;30.73;;;9.40;83.10;;;;;;5055094;28;20044;-34
2021/11/02 04:02:13;;;;;;;54.05;29.63;;;9.40;83.30;;;;;;5056180;28;20035;-40
2021/11/02 04:57:49;;;;;;;55.50;30.40;;;9.40;84.10;;;;;;5055622;28;20021;-35
2021/11/02 05:59:40;;;;;;;47.25;24.88;;;9.50;84.90;;;;;;5058486;28;20058;-39
2021/11/02 06:08:23;;;;;;;43.80;22.85;;;9.60;85.30;;;;;;5052955;28;20033;-38
2021/11/02 06:30:07;;;;;;;40.63;21.38;;;9.70;85.40;;;;;;5057824;28;20120;-41
2021/11/02 06:32:36;;;;;;;42.72;22.02;;;9.70;85.50;;;;;;5057278;28;20164;-33
2021/11/02 06:35:44;;;;;;;42.67;23.67;;;9.70;85.50;;;;;;5057375;28;20114;-38
2021/11/02 06:46:10;;;;;;;39.28;20.52;;;9.80;85.60;;;;;;5057305;28;20333;-39
2021/11/02 07:17:33;;;;;;;33.75;18.23;;;10.00;85.30;;;;;;5056514;28;20036;-42
2021/11/02 08:46:44;;;;;;;47.35;22.27;;;10.40;86.80;;;;;;5055239;28;20044;-37
2021/11/02 08:48:55;;;;;;;55.50;25.90;;;10.50;86.80;;;;;;5040611;28;20037;-36
2021/11/02 08:51:21;;;;;;;55.45;24.13;;;10.50;86.90;;;;;;5035085;28;20026;-36
2021/11/02 08:53:49;;;;;;;41.42;21.20;;;10.50;86.90;;;;;;5045208;28;20333;-37
2021/11/02 08:56:16;;;;;;;48.67;21.75;;;10.50;86.90;;;;;;5054558;28;20049;-38
2021/11/02 08:58:45;;;;;;;48.10;22.60;;;10.60;86.90;;;;;;5054612;28;20333;-37
2021/11/02 09:01:12;;;;;;;40.63;22.10;;;10.60;86.90;;;;;;5054719;28;20036;-35
2021/11/02 09:03:45;;;;;;;42.63;22.52;;;10.60;86.90;;;;;;5054632;28;20098;-35
2021/11/02 09:06:13;;;;;;;41.70;20.13;;;10.60;87.00;;;;;;5054889;28;20021;-37
2021/11/02 09:08:41;;;;;;;41.90;21.73;;;10.60;86.90;;;;;;5054892;28;20052;-36
2021/11/02 09:11:11;;;;;;;43.47;21.15;;;10.60;86.80;;;;;;5057772;28;20021;-37
2021/11/02 09:13:37;;;;;;;46.25;22.75;;;10.70;86.90;;;;;;5058574;28;20079;-36
2021/11/02 09:16:05;;;;;;;35.20;20.85;;;10.70;86.90;;;;;;5058590;28;20037;-37
2021/11/02 09:18:31;;;;;;;40.40;19.98;;;10.70;86.90;;;;;;5058443;28;20029;-37
2021/11/02 09:20:58;;;;;;;39.47;21.17;;;10.80;86.90;;;;;;5059014;28;20117;-37
2021/11/02 09:23:26;;;;;;;36.95;18.98;;;10.80;86.80;;;;;;5058351;28;20071;-38
2021/11/02 09:25:53;;;;;;;38.90;18.45;;;10.80;86.60;;;;;;5052726;28;20067;-37
2021/11/02 09:28:20;;;;;;;40.67;19.85;;;10.90;86.60;;;;;;5052800;28;20052;-37
2021/11/02 09:30:46;;;;;;;39.63;20.42;;;10.80;86.50;;;;;;5056727;28;20060;-35
2021/11/02 09:33:13;;;;;;;35.70;21.27;;;10.90;86.50;;;;;;5058280;28;20025;-36
2021/11/02 09:35:39;;;;;;;45.88;22.75;;;10.90;86.60;;;;;;5058745;28;20330;-36
2021/11/02 09:38:16;;;;;;;45.33;21.00;;;10.90;86.50;;;;;;5058217;28;20029;-37
2021/11/02 09:41:03;;;;;;;36.42;18.85;;;10.90;86.40;;;;;;5058626;28;20049;-37
2021/11/02 09:44:10;;;;;;;37.15;19.58;;;10.90;86.40;;;;;;5057875;28;20032;-36
2021/11/02 09:47:12;;;;;;;47.80;23.73;;;11.00;86.30;;;;;;5057836;28;20087;-36
2021/11/02 09:50:02;;;;;;;43.05;21.63;;;10.90;86.90;;;;;;5058328;28;20033;-37
2021/11/02 09:52:57;;;;;;;43.10;22.90;;;11.00;86.50;;;;;;5057567;28;20047;-38
2021/11/02 09:55:35;;;;;;;41.33;21.75;;;11.00;86.40;;;;;;5056958;28;20052;-38
2021/11/02 09:58:13;;;;;;;48.65;24.05;;;11.00;86.70;;;;;;5057097;28;20107;-37
2021/11/02 10:00:49;;;;;;;48.47;23.85;;;11.00;86.80;;;;;;5058476;28;20313;-35
2021/11/02 10:03:43;;;;;;;44.50;23.25;;;11.00;86.80;;;;;;5056445;28;20036;-36
2021/11/02 10:06:15;;;;;;;46.65;23.75;;;11.00;86.80;;;;;;5058008;28;20029;-36
2021/11/02 10:08:44;;;;;;;43.97;24.20;;;11.00;86.80;;;;;;5057844;28;20025;-37
2021/11/02 10:11:37;;;;;;;41.78;22.63;;;11.10;86.90;;;;;;5058245;28;20070;-36
2021/11/02 10:14:33;;;;;;;70.25;39.00;;;11.10;86.60;;;;;;5058146;28;20072;-37
2021/11/02 10:17:11;;;;;;;62.83;36.25;;;11.10;86.70;;;;;;5056410;28;20056;-37
2021/11/02 10:19:59;;;;;;;59.05;33.22;;;11.10;86.90;;;;;;5057817;28;20064;-37
2021/11/02 10:22:42;;;;;;;58.30;33.50;;;11.10;87.00;;;;;;5055517;28;20104;-37
2021/11/02 10:25:29;;;;;;;63.40;34.50;;;11.10;86.90;;;;;;5057793;28;20033;-36
2021/11/02 10:28:26;;;;;;;57.47;30.77;;;11.10;86.80;;;;;;5057214;28;20029;-35
2021/11/02 10:31:06;;;;;;;50.42;30.98;;;11.10;87.00;;;;;;5057756;28;20025;-37
2021/11/02 10:33:35;;;;;;;53.05;27.25;;;11.10;87.10;;;;;;5057458;28;20029;-36
2021/11/02 10:36:31;;;;;;;50.58;27.80;;;11.10;87.20;;;;;;5057221;28;20329;-38
2021/11/02 10:39:10;;;;;;;53.67;29.67;;;11.10;87.20;;;;;;5057314;28;20025;-36
2021/11/02 10:41:44;;;;;;;62.85;30.90;;;11.10;87.40;;;;;;5056946;28;20033;-36
2021/11/02 10:44:16;;;;;;;63.10;32.80;;;11.10;87.60;;;;;;5040281;28;20059;-39
2021/11/02 10:47:12;;;;;;;56.88;29.67;;;11.10;87.70;;;;;;5056922;28;20029;-38
2021/11/02 10:50:12;;;;;;;48.97;25.00;;;11.10;87.70;;;;;;5056780;28;20041;-36
2021/11/02 10:52:40;;;;;;;49.78;26.33;;;11.10;87.80;;;;;;5055657;28;20063;-38
2021/11/02 10:55:12;;;;;;;47.28;24.63;;;11.10;87.80;;;;;;5040656;28;20060;-37
2021/11/02 10:58:21;;;;;;;61.63;32.83;;;11.20;88.00;;;;;;5036790;28;20523;-37
2021/11/02 11:00:51;;;;;;;64.90;34.88;;;11.20;87.60;;;;;;5037339;28;20144;-38
2021/11/02 11:03:29;;;;;;;62.58;31.38;;;11.20;88.00;;;;;;5036942;28;20029;-38
2021/11/02 11:06:00;;;;;;;58.28;30.42;;;11.20;88.00;;;;;;5037120;28;20033;-37
2021/11/02 11:08:32;;;;;;;66.00;31.17;;;11.20;88.30;;;;;;5036573;28;20022;-36
2021/11/02 11:10:59;;;;;;;70.50;34.17;;;11.20;88.20;;;;;;5036570;28;20033;-37
2021/11/02 11:13:28;;;;;;;64.30;33.75;;;11.20;88.30;;;;;;5036353;28;20028;-38
2021/11/02 11:16:16;;;;;;;69.03;35.97;;;11.20;88.50;;;;;;5036461;28;20029;-37
2021/11/02 11:19:10;;;;;;;60.30;31.80;;;11.30;88.20;;;;;;5036109;28;20042;-36
2021/11/02 11:21:37;;;;;;;55.17;30.83;;;11.30;88.20;;;;;;5036685;28;20382;-35
2021/11/02 11:24:13;;;;;;;54.65;27.13;;;11.30;88.50;;;;;;5036794;28;20037;-38
2021/11/02 11:26:54;;;;;;;49.25;24.63;;;11.30;88.60;;;;;;5036021;28;20425;-37
2021/11/02 11:29:21;;;;;;;;;;;11.30;88.40;;;;;;5036969;28;20160;-36
2021/11/02 11:31:48;;;;;;;51.70;26.73;;;11.30;87.80;;;;;;5036047;28;19912;-38
2021/11/02 11:34:16;;;;;;;57.88;26.50;;;11.30;88.30;;;;;;5036162;28;20033;-37
2021/11/02 11:36:48;;;;;;;49.95;25.45;;;11.30;88.30;;;;;;5035809;28;20056;-38
2021/11/02 11:39:20;;;;;;;51.75;26.77;;;11.30;88.40;;;;;;5036635;28;20071;-38
2021/11/02 11:41:51;;;;;;;49.58;27.27;;;11.30;88.60;;;;;;5036231;28;20368;-37
2021/11/02 11:44:19;;;;;;;54.25;29.88;;;11.30;88.60;;;;;;5036213;28;20033;-36
2021/11/02 11:46:47;;;;;;;60.55;30.48;;;11.30;88.70;;;;;;5036115;28;20029;-38
2021/11/02 11:49:25;;;;;;;69.97;30.35;;;11.30;89.10;;;;;;5035018;28;20036;-35
2021/11/02 11:52:03;;;;;;;55.85;27.45;;;11.30;89.00;;;;;;5035730;28;20053;-36
2021/11/02 11:54:41;;;;;;;55.88;28.75;;;11.30;89.10;;;;;;5035664;28;20049;-36
2021/11/02 11:57:08;;;;;;;57.10;28.05;;;11.30;89.20;;;;;;5035780;28;20032;-35
2021/11/02 11:59:35;;;;;;;62.10;29.67;;;11.30;89.40;;;;;;5035764;28;20388;-36
2021/11/02 12:02:10;;;;;;;53.42;28.02;;;11.30;90.10;;;;;;5035748;28;20414;-36
2021/11/02 12:04:46;;;;;;;50.47;26.08;;;11.30;89.60;;;;;;5035957;28;20091;-36
2021/11/02 12:07:48;;;;;;;59.05;30.02;;;11.30;89.60;;;;;;5035402;28;20075;-36
2021/11/02 12:10:20;;;;;;;46.58;26.30;;;11.30;89.30;;;;;;5036180;28;20343;-36
2021/11/02 12:12:49;;;;;;;74.00;38.28;;;11.30;89.50;;;;;;5035202;28;20053;-37
2021/11/02 12:15:16;;;;;;;52.80;29.27;;;11.30;89.70;;;;;;5045604;28;20036;-37
2021/11/02 12:17:44;;;;;;;60.25;32.20;;;11.40;89.90;;;;;;5055621;28;20029;-37
2021/11/02 12:20:13;;;;;;;58.58;39.38;;;11.40;90.00;;;;;;5055763;28;20071;-37
2021/11/02 12:22:56;;;;;;;59.58;35.90;;;11.30;90.00;;;;;;5055237;28;20086;-38
2021/11/02 12:25:24;;;;;;;48.47;28.58;;;11.40;90.00;;;;;;5049256;28;20314;-36
2021/11/02 12:27:50;;;;;;;48.05;24.27;;;11.40;90.00;;;;;;5035043;28;20029;-36
2021/11/02 12:30:20;;;;;;;41.40;23.67;;;11.40;89.90;;;;;;5035511;28;20088;-37
2021/11/02 12:32:55;;;;;;;54.58;31.58;;;11.40;89.90;;;;;;5035273;28;20033;-35
2021/11/02 12:35:31;;;;;;;47.72;28.70;;;11.40;89.80;;;;;;5035257;28;20401;-36
2021/11/02 12:38:00;;;;;;;44.75;27.60;;;11.50;89.90;;;;;;5034732;28;20046;-36
2021/11/02 12:40:31;;;;;;;43.85;27.30;;;11.50;90.00;;;;;;5035622;28;20365;-38
2021/11/02 12:42:57;;;;;;;38.03;22.60;;;11.40;90.10;;;;;;5034970;28;20053;-38
2021/11/02 12:45:27;;;;;;;38.95;23.33;;;11.40;90.10;;;;;;5037355;28;20073;-39
2021/11/02 12:47:59;;;;;;;45.28;26.23;;;11.50;90.10;;;;;;5039385;28;20030;-41
2021/11/02 12:50:31;;;;;;;37.28;22.27;;;11.50;90.10;;;;;;5039627;28;20030;-37
2021/11/02 12:52:57;;;;;;;40.75;24.23;;;11.50;90.20;;;;;;5039369;28;20036;-37
2021/11/02 12:55:29;;;;;;;32.33;19.48;;;11.50;90.30;;;;;;5038777;28;20068;-38
2021/11/02 12:58:12;;;;;;;39.17;22.75;;;11.50;90.30;;;;;;5038944;28;20033;-38
2021/11/02 13:00:59;;;;;;;43.25;24.42;;;11.60;90.20;;;;;;5038703;28;20037;-37
2021/11/02 13:03:33;;;;;;;41.70;23.45;;;11.60;90.20;;;;;;5038981;28;20026;-36
2021/11/02 13:06:09;;;;;;;35.60;22.42;;;11.60;90.20;;;;;;5039308;28;20096;-36
2021/11/02 13:08:53;;;;;;;50.88;27.45;;;11.60;90.10;;;;;;5038662;28;20022;-38
2021/11/02 13:11:21;;;;;;;47.15;28.17;;;11.60;90.20;;;;;;5039040;28;20310;-36
2021/11/02 13:13:59;;;;;;;46.20;27.05;;;11.60;90.30;;;;;;5038829;28;20048;-37
2021/11/02 13:16:27;;;;;;;50.78;30.35;;;11.70;90.40;;;;;;5038648;28;20367;-36
2021/11/02 13:18:53;;;;;;;59.90;33.17;;;11.70;90.70;;;;;;5038791;28;20044;-39
2021/11/02 13:21:29;;;;;;;73.25;35.55;;;11.70;90.40;;;;;;5039033;28;20063;-40
2021/11/02 13:24:07;;;;;;;74.90;37.30;;;11.70;90.50;;;;;;5039089;28;20054;-37
2021/11/02 13:26:39;;;;;;;74.45;37.90;;;11.70;90.40;;;;;;5038481;28;20092;-35
2021/11/02 13:29:10;;;;;;;83.72;40.88;;;11.70;90.50;;;;;;5039045;28;20076;-37
2021/11/02 13:31:37;;;;;;;95.30;47.95;;;11.70;90.50;;;;;;5038529;28;20030;-37
2021/11/02 13:34:06;;;;;;;96.85;45.80;;;11.80;90.50;;;;;;5038786;28;20239;-37
2021/11/02 13:36:32;;;;;;;102.60;51.05;;;11.80;90.60;;;;;;5037606;28;20117;-37
2021/11/02 13:39:12;;;;;;;112.82;51.55;;;11.80;90.60;;;;;;5038649;28;20043;-37
2021/11/02 13:41:39;;;;;;;93.25;49.30;;;11.80;90.50;;;;;;5038404;28;20360;-38
2021/11/02 13:44:09;;;;;;;122.80;54.47;;;11.80;90.50;;;;;;5038519;28;20065;-37
2021/11/02 13:46:37;;;;;;;115.50;61.47;;;11.80;90.60;;;;;;5038519;28;20275;-37
2021/11/02 13:49:05;;;;;;;116.25;52.88;;;11.80;90.60;;;;;;5038529;28;20031;-38
2021/11/02 13:51:31;;;;;;;114.82;48.63;;;11.80;90.60;;;;;;5038465;28;20025;-37
2021/11/02 13:53:57;;;;;;;107.28;50.03;;;11.80;90.60;;;;;;5038256;28;20037;-38
2021/11/02 13:56:26;;;;;;;111.72;56.90;;;11.80;90.50;;;;;;5037634;28;20061;-37
2021/11/02 13:58:53;;;;;;;137.75;61.92;;;11.80;90.50;;;;;;5038446;28;20033;-36
2021/11/02 14:01:26;;;;;;;104.15;53.03;;;11.80;90.50;;;;;;5038120;28;20083;-37
2021/11/02 14:04:31;;;;;;;114.55;54.28;;;11.90;90.50;;;;;;5037963;28;20033;-37
2021/11/02 14:07:02;;;;;;;102.97;48.90;;;11.90;90.40;;;;;;5036668;28;20384;-38
2021/11/02 14:09:33;;;;;;;99.55;48.42;;;11.90;90.50;;;;;;5038018;28;20037;-38
2021/11/02 14:12:00;;;;;;;102.10;47.88;;;11.90;90.50;;;;;;5038037;28;20104;-37
2021/11/02 14:14:28;;;;;;;91.00;45.33;;;11.90;90.60;;;;;;5038153;28;20021;-37
2021/11/02 14:16:55;;;;;;;110.07;52.00;;;11.90;90.50;;;;;;5037617;28;20036;-36
2021/11/02 14:19:33;;;;;;;110.75;49.97;;;11.90;90.50;;;;;;5038389;28;20057;-36
2021/11/02 14:21:59;;;;;;;109.65;53.20;;;11.90;90.40;;;;;;5037845;28;20394;-37
2021/11/02 14:24:30;;;;;;;102.88;48.72;;;11.90;90.50;;;;;;5037808;28;20057;-37
2021/11/02 14:26:56;;;;;;;;;;;11.90;90.40;;;;;;5038449;28;20087;-36
2021/11/02 14:29:44;;;;;;;105.50;49.65;;;11.90;90.20;;;;;;5037779;28;20311;-36
2021/11/02 14:32:10;;;;;;;106.57;48.55;;;11.90;90.20;;;;;;5037219;28;20299;-38
2021/11/02 14:34:45;;;;;;;96.50;47.22;;;11.90;90.40;;;;;;5037581;28;20044;-37
2021/11/02 14:37:21;;;;;;;120.85;53.85;;;11.90;90.50;;;;;;5037083;28;20037;-37
2021/11/02 14:40:06;;;;;;;113.55;53.83;;;11.90;90.40;;;;;;5037791;28;20057;-37
2021/11/02 14:42:50;;;;;;;107.20;51.97;;;11.90;90.30;;;;;;5037395;28;20449;-36
2021/11/02 14:45:36;;;;;;;121.55;55.15;;;11.90;90.30;;;;;;5037621;28;20092;-38
2021/11/02 14:48:24;;;;;;;104.75;50.13;;;11.90;90.50;;;;;;5036894;28;20029;-37
2021/11/02 14:50:52;;;;;;;111.47;52.55;;;11.90;90.30;;;;;;5036937;28;20034;-37
2021/11/02 14:53:32;;;;;;;86.95;44.30;;;11.90;90.50;;;;;;5036774;28;20311;-37
2021/11/02 14:56:12;;;;;;;98.72;51.60;;;11.90;90.50;;;;;;5036758;28;20049;-38
2021/11/02 14:58:43;;;;;;;105.72;53.20;;;11.90;90.50;;;;;;5036835;28;20077;-39
2021/11/02 15:01:10;;;;;;;85.72;43.90;;;11.90;90.50;;;;;;5037022;28;20083;-37
2021/11/02 15:03:36;;;;;;;88.10;42.97;;;12.00;90.60;;;;;;5036596;28;20047;-36
2021/11/02 15:06:13;;;;;;;115.07;55.13;;;12.00;90.60;;;;;;5036948;28;20338;-38
2021/11/02 15:08:41;;;;;;;150.48;80.07;;;12.00;90.50;;;;;;5035576;28;20425;-37
2021/11/02 15:11:18;;;;;;;119.07;58.28;;;12.00;90.50;;;;;;5036682;28;20045;-36
2021/11/02 15:13:50;;;;;;;112.00;51.90;;;12.00;90.40;;;;;;5036405;28;20068;-38
2021/11/02 15:16:17;;;;;;;98.13;47.88;;;12.00;90.50;;;;;;5036924;28;20037;-38
2021/11/02 15:18:51;;;;;;;100.22;46.88;;;12.00;90.60;;;;;;5036209;28;20037;-36
2021/11/02 15:21:45;;;;;;;100.90;45.78;;;12.00;90.60;;;;;;5036703;28;20104;-35
2021/11/02 15:24:32;;;;;;;97.03;46.25;;;12.00;90.40;;;;;;5037016;28;20444;-38
2021/11/02 15:27:03;;;;;;;91.30;44.97;;;12.00;90.50;;;;;;5036451;28;20048;-36
2021/11/02 15:29:33;;;;;;;98.32;46.85;;;12.00;90.50;;;;;;5036474;28;20145;-36
2021/11/02 15:32:13;;;;;;;99.15;49.08;;;12.00;90.60;;;;;;5036336;28;20087;-36
2021/11/02 15:34:40;;;;;;;107.15;48.70;;;12.10;90.60;;;;;;5036686;28;20108;-36
2021/11/02 15:37:27;;;;;;;95.10;43.60;;;12.00;90.50;;;;;;5036195;28;20325;-37
2021/11/02 15:40:00;;;;;;;89.05;42.88;;;12.00;90.50;;;;;;5036549;28;20041;-36
2021/11/02 15:42:25;;;;;;;94.75;44.17;;;12.10;90.50;;;;;;5036264;28;20109;-35
2021/11/02 15:44:54;;;;;;;121.32;56.65;;;12.00;90.60;;;;;;5036700;28;20116;-37
2021/11/02 15:47:23;;;;;;;108.55;50.75;;;12.00;90.70;;;;;;5035845;28;20456;-36
2021/11/02 15:50:08;;;;;;;98.55;47.03;;;12.00;90.70;;;;;;5036275;28;20108;-36
2021/11/02 15:52:36;;;;;;;105.07;50.75;;;12.00;90.60;;;;;;5035861;28;20101;-36
2021/11/02 15:55:09;;;;;;;103.50;45.00;;;12.00;90.70;;;;;;5035576;28;20060;-36
2021/11/02 15:57:48;;;;;;;101.35;49.65;;;12.00;90.80;;;;;;5035942;28;20033;-36
2021/11/02 16:00:15;;;;;;;100.80;49.80;;;12.00;90.80;;;;;;5036386;28;20124;-36
2021/11/02 16:02:44;;;;;;;92.55;42.38;;;12.00;90.80;;;;;;5035629;28;20052;-38
2021/11/02 16:05:11;;;;;;;84.32;42.20;;;12.00;90.80;;;;;;5036457;28;20061;-38
2021/11/02 16:07:38;;;;;;;67.35;37.55;;;11.90;90.80;;;;;;5035551;28;20033;-37
2021/11/02 16:10:08;;;;;;;64.35;38.08;;;11.90;90.80;;;;;;5035827;28;20025;-37
2021/11/02 16:12:37;;;;;;;63.70;33.20;;;12.00;90.70;;;;;;5035861;28;20025;-37
2021/11/02 16:15:06;;;;;;;49.72;27.50;;;11.90;90.70;;;;;;5036164;28;20048;-37
2021/11/02 16:17:39;;;;;;;48.55;28.30;;;11.90;90.70;;;;;;5035677;28;20052;-37
2021/11/02 16:20:06;;;;;;;45.45;26.85;;;11.90;90.70;;;;;;5036108;28;20040;-38
2021/11/02 16:22:57;;;;;;;44.95;26.05;;;11.90;90.80;;;;;;5035616;28;20026;-37
2021/11/02 16:25:23;;;;;;;41.30;24.55;;;11.80;90.70;;;;;;5035903;28;20033;-37
2021/11/02 16:27:55;;;;;;;37.53;23.58;;;11.80;90.70;;;;;;5035762;28;20033;-35
2021/11/02 16:30:22;;;;;;;44.65;26.45;;;11.80;90.70;;;;;;5035703;28;20071;-39
2021/11/02 16:32:50;;;;;;;41.08;25.88;;;11.80;90.80;;;;;;5035375;28;20101;-35
2021/11/02 16:35:31;;;;;;;41.05;23.10;;;11.80;90.80;;;;;;5035629;28;20044;-38
2021/11/02 16:37:57;;;;;;;36.67;20.83;;;11.80;90.70;;;;;;5035099;28;20444;-39
2021/11/02 16:40:27;;;;;;;32.28;19.08;;;11.70;90.70;;;;;;5035681;28;20079;-36
2021/11/02 16:42:56;;;;;;;35.20;20.83;;;11.70;90.60;;;;;;5035520;28;20120;-36
2021/11/02 16:45:23;;;;;;;30.90;18.55;;;11.60;90.60;;;;;;5035780;28;20037;-36
2021/11/02 16:47:56;;;;;;;31.20;18.13;;;11.60;90.60;;;;;;5035237;28;20033;-38
2021/11/02 16:50:37;;;;;;;31.20;19.65;;;11.60;90.60;;;;;;5035785;28;20038;-35
2021/11/02 16:53:09;;;;;;;31.90;19.80;;;11.60;90.70;;;;;;5035158;28;20089;-36
2021/11/02 16:55:40;;;;;;;35.83;24.35;;;11.50;90.60;;;;;;5035163;28;20354;-37
2021/11/02 16:58:18;;;;;;;29.40;18.17;;;11.50;90.90;;;;;;5035066;28;20026;-36
2021/11/02 17:00:45;;;;;;;28.40;17.73;;;11.50;90.70;;;;;;5035349;28;20370;-36
2021/11/02 17:03:14;;;;;;;28.98;17.60;;;11.50;90.80;;;;;;5034869;28;20021;-37
2021/11/02 17:05:40;;;;;;;28.98;16.77;;;11.40;90.80;;;;;;5035502;28;20059;-38
2021/11/02 17:08:09;;;;;;;23.75;15.52;;;11.40;90.90;;;;;;5034887;28;20068;-36
2021/11/02 17:10:50;;;;;;;27.58;16.50;;;11.40;90.90;;;;;;5035492;28;20091;-36
2021/11/02 17:13:28;;;;;;;24.25;15.70;;;11.30;90.80;;;;;;5034843;28;20038;-36
2021/11/02 17:16:03;;;;;;;24.40;16.17;;;11.30;91.00;;;;;;5035113;28;20095;-38
2021/11/02 17:18:45;;;;;;;32.85;18.27;;;11.30;91.10;;;;;;5035156;28;20026;-36
2021/11/02 17:21:13;;;;;;;28.55;16.55;;;11.30;91.00;;;;;;5035195;28;20087;-38
2021/11/02 17:23:39;;;;;;;31.38;18.35;;;11.30;91.10;;;;;;5034717;28;20075;-35
2021/11/02 17:26:07;;;;;;;29.05;17.58;;;11.20;91.10;;;;;;5035405;28;20030;-36
2021/11/02 17:28:37;;;;;;;27.80;17.25;;;11.20;91.20;;;;;;5034795;28;20444;-35
2021/11/02 17:31:04;;;;;;;23.83;16.58;;;11.20;91.20;;;;;;5036162;28;20066;-37
2021/11/02 17:33:36;;;;;;;27.20;16.70;;;11.20;91.20;;;;;;5038732;28;20075;-36
2021/11/02 17:36:03;;;;;;;27.50;16.10;;;11.20;91.20;;;;;;5038515;28;20029;-38
2021/11/02 17:38:30;;;;;;;24.75;16.15;;;11.20;91.20;;;;;;5038587;28;20032;-38
2021/11/02 17:40:59;;;;;;;23.85;15.63;;;11.20;91.10;;;;;;5038598;28;20040;-36
2021/11/02 17:43:27;;;;;;;22.60;15.25;;;11.20;91.10;;;;;;5038066;28;20025;-36
2021/11/02 17:45:53;;;;;;;21.75;15.05;;;11.20;91.00;;;;;;5038745;28;20052;-36
2021/11/02 17:48:20;;;;;;;22.70;15.20;;;11.20;91.10;;;;;;5038541;28;20433;-38
2021/11/02 17:50:47;;;;;;;23.30;14.88;;;11.20;91.00;;;;;;5038718;28;20033;-36
2021/11/02 17:53:13;;;;;;;24.83;16.05;;;11.10;91.00;;;;;;5038070;28;20040;-39
2021/11/02 17:55:39;;;;;;;25.17;16.90;;;11.10;91.00;;;;;;5038082;28;20054;-37
2021/11/02 17:58:05;;;;;;;26.80;16.83;;;11.10;91.10;;;;;;5037063;28;20468;-38